CCA0721 ZSJN-ZSQD
Flight info
| Callsign | CCA0721 |
|---|---|
| Flight time | N/A |
| Altitude | 22600 |
| Route | ZSJN/01 OKALI W103 WFG WFG92A |
| Aircraft | A20N/M-SDE2E3FGHIRWXY/LB1 |
Departure
| Time | 2026-04-19 15:04 |
|---|---|
| Airport | Jinan Yaoqiang International Airport (ZSJN) |
Arrival
| Time | N/A |
|---|---|
| Airport | Qingdao Jiaodong International Airport (ZSQD) |
| Time | Latitude | Longitude | Altitude | Speed | Heading |
|---|---|---|---|---|---|
| 2026-04-19 14:46 | 36.84728 | 117.21146 | 84 ft | 0 kts | 270° |
| 2026-04-19 14:49 | 36.84728 | 117.21158 | 84 ft | 2 kts | 270° |
| 2026-04-19 14:49 | 36.84728 | 117.21176 | 84 ft | 2 kts | 270° |
| 2026-04-19 14:49 | 36.84728 | 117.21195 | 84 ft | 2 kts | 271° |
| 2026-04-19 14:50 | 36.84727 | 117.21212 | 84 ft | 1 kts | 271° |
| 2026-04-19 14:50 | 36.84727 | 117.21229 | 84 ft | 2 kts | 270° |
| 2026-04-19 14:50 | 36.84724 | 117.21246 | 84 ft | 2 kts | 296° |
| 2026-04-19 14:50 | 36.84717 | 117.21260 | 84 ft | 2 kts | 315° |
| 2026-04-19 14:51 | 36.84708 | 117.21269 | 84 ft | 2 kts | 333° |
| 2026-04-19 14:51 | 36.84697 | 117.21274 | 84 ft | 2 kts | 351° |
| 2026-04-19 14:51 | 36.84691 | 117.21275 | 84 ft | 1 kts | 1° |
| 2026-04-19 14:51 | 36.84686 | 117.21275 | 84 ft | 0 kts | 0° |
| 2026-04-19 14:56 | 36.84684 | 117.21275 | 84 ft | 2 kts | 0° |
| 2026-04-19 14:56 | 36.84672 | 117.21275 | 84 ft | 1 kts | 0° |
| 2026-04-19 14:57 | 36.84663 | 117.21275 | 84 ft | 2 kts | 7° |
| 2026-04-19 14:57 | 36.84651 | 117.21270 | 84 ft | 2 kts | 29° |
| 2026-04-19 14:57 | 36.84640 | 117.21260 | 84 ft | 2 kts | 48° |
| 2026-04-19 14:57 | 36.84634 | 117.21249 | 84 ft | 2 kts | 64° |
| 2026-04-19 14:58 | 36.84630 | 117.21236 | 84 ft | 2 kts | 80° |
| 2026-04-19 14:58 | 36.84629 | 117.21222 | 84 ft | 1 kts | 96° |
| 2026-04-19 14:58 | 36.84632 | 117.21208 | 84 ft | 2 kts | 112° |
| 2026-04-19 14:58 | 36.84635 | 117.21200 | 84 ft | 1 kts | 124° |
| 2026-04-19 14:59 | 36.84639 | 117.21194 | 84 ft | 0 kts | 125° |
| 2026-04-19 15:00 | 36.84638 | 117.21195 | 84 ft | 1 kts | 125° |
| 2026-04-19 15:00 | 36.84617 | 117.21233 | 84 ft | 7 kts | 123° |
| 2026-04-19 15:00 | 36.84576 | 117.21271 | 84 ft | 9 kts | 171° |
| 2026-04-19 15:01 | 36.84519 | 117.21274 | 84 ft | 10 kts | 179° |
| 2026-04-19 15:01 | 36.84454 | 117.21275 | 84 ft | 12 kts | 180° |
| 2026-04-19 15:01 | 36.84383 | 117.21274 | 84 ft | 13 kts | 180° |
| 2026-04-19 15:01 | 36.84298 | 117.21272 | 84 ft | 14 kts | 179° |
| 2026-04-19 15:02 | 36.84225 | 117.21285 | 84 ft | 10 kts | 183° |
| 2026-04-19 15:02 | 36.84158 | 117.21275 | 84 ft | 11 kts | 175° |
| 2026-04-19 15:02 | 36.84120 | 117.21343 | 84 ft | 10 kts | 96° |
| 2026-04-19 15:02 | 36.84119 | 117.21405 | 84 ft | 0 kts | 89° |
| 2026-04-19 15:03 | 36.84119 | 117.21428 | 84 ft | 6 kts | 89° |
| 2026-04-19 15:03 | 36.84124 | 117.21548 | 84 ft | 18 kts | 73° |
| 2026-04-19 15:03 | 36.84240 | 117.21600 | 84 ft | 26 kts | 357° |
| 2026-04-19 15:03 | 36.84742 | 117.21603 | 84 ft | 113 kts | 1° |
| 2026-04-19 15:04 | 36.88522 | 117.21691 | 2264 ft | 172 kts | 3° |
| 2026-04-19 15:05 | 36.92276 | 117.21627 | 3301 ft | 204 kts | 359° |
| 2026-04-19 15:05 | 36.93986 | 117.21604 | 3303 ft | 203 kts | 359° |
| 2026-04-19 15:05 | 36.97135 | 117.21592 | 3304 ft | 204 kts | 1° |
| 2026-04-19 15:06 | 36.98940 | 117.22362 | 3313 ft | 211 kts | 32° |
| 2026-04-19 15:06 | 37.00083 | 117.24347 | 3310 ft | 228 kts | 65° |
| 2026-04-19 15:06 | 37.00232 | 117.26035 | 3313 ft | 243 kts | 89° |
| 2026-04-19 15:07 | 36.99623 | 117.28056 | 3311 ft | 260 kts | 120° |
| 2026-04-19 15:07 | 36.98150 | 117.29500 | 3298 ft | 271 kts | 154° |
| 2026-04-19 15:07 | 36.96368 | 117.30302 | 3303 ft | 272 kts | 159° |
| 2026-04-19 15:07 | 36.95473 | 117.30675 | 3297 ft | 272 kts | 158° |
| 2026-04-19 15:08 | 36.95425 | 117.30695 | 3297 ft | 272 kts | 159° |